Time;durP1;ratioP1;P1;durP2;ratioP2;P2;SDS_P1;SDS_P2;PMS_P1;PMS_P2;Temp;Humidity;BMP_temperature;BMP_pressure;BME280_temperature;BME280_humidity;BME280_pressure;Samples;Min_cycle;Max_cycle;Signal;HPM_P1;HPM_P2
2022/04/30 00:00:32;;;;;;;0.10;0.10;;;12.20;99.90;;;12.24;100.00;101150.53;4965103;28;20206;-72
2022/04/30 00:03:01;;;;;;;0.10;0.10;;;12.20;99.90;;;12.20;100.00;101149.59;4966230;28;20217;-72
2022/04/30 00:05:30;;;;;;;0.10;0.10;;;12.20;99.90;;;12.19;100.00;101163.72;4964296;28;20244;-72
2022/04/30 00:08:00;;;;;;;0.10;0.10;;;12.10;99.90;;;12.14;100.00;101173.38;4964301;28;20213;-72
2022/04/30 00:10:27;;;;;;;0.10;0.10;;;12.10;99.90;;;12.03;100.00;101170.56;4963868;28;20268;-72
2022/04/30 00:12:55;;;;;;;0.10;0.10;;;12.00;99.90;;;11.96;100.00;101191.66;4960366;28;20228;-72
2022/04/30 00:15:24;;;;;;;0.10;0.10;;;;;;;12.02;100.00;101203.25;4968202;28;20202;-72
2022/04/30 00:17:52;;;;;;;0.20;0.20;;;11.90;99.90;;;12.08;100.00;101219.25;4966141;28;20217;-72
2022/04/30 00:20:20;;;;;;;0.10;0.10;;;12.00;99.90;;;12.00;100.00;101220.88;4961934;28;20217;-72
2022/04/30 00:22:49;;;;;;;0.17;0.17;;;12.00;99.90;;;12.06;100.00;101241.31;4962568;28;20208;-72
2022/04/30 00:25:17;;;;;;;0.20;0.20;;;11.90;99.90;;;11.94;100.00;101234.03;4961000;28;20233;-72
2022/04/30 00:27:45;;;;;;;0.28;0.28;;;11.90;99.90;;;11.93;100.00;101249.91;4966960;28;20563;-72
2022/04/30 00:30:13;;;;;;;0.10;0.10;;;11.90;99.90;;;11.93;100.00;101248.16;4979480;28;20213;-72
2022/04/30 00:32:42;;;;;;;0.10;0.10;;;;;;;11.89;100.00;101246.34;4964199;28;20209;-72
2022/04/30 00:35:10;;;;;;;0.20;0.20;;;11.80;99.90;;;11.95;100.00;101245.53;4965839;28;20220;-72
2022/04/30 00:37:38;;;;;;;0.10;0.10;;;11.90;99.90;;;11.89;100.00;101242.78;4965376;28;20698;-72
2022/04/30 00:40:06;;;;;;;0.25;0.25;;;11.80;99.90;;;11.85;100.00;101240.09;4968052;28;20210;-72
2022/04/30 00:42:34;;;;;;;0.20;0.20;;;11.80;99.90;;;11.77;100.00;101238.13;4961857;28;20220;-72
2022/04/30 00:45:04;;;;;;;0.10;0.10;;;11.80;99.90;;;11.82;100.00;101258.59;4963207;28;20222;-72
2022/04/30 00:47:32;;;;;;;0.10;0.10;;;;;;;11.82;100.00;101257.69;4967821;28;20228;-72
2022/04/30 00:50:00;;;;;;;0.20;0.20;;;;;;;11.86;100.00;101248.94;4980519;28;20213;-72
2022/04/30 00:52:29;;;;;;;0.20;0.20;;;;;;;11.82;100.00;101239.13;4967146;28;20209;-72
2022/04/30 00:55:02;;;;;;;0.45;0.45;;;11.70;99.90;;;11.79;100.00;101236.44;4957062;28;20205;-72
2022/04/30 00:57:32;;;;;;;0.10;0.10;;;11.70;99.90;;;11.71;100.00;101236.28;4958814;28;20237;-72
2022/04/30 01:00:01;;;;;;;0.10;0.10;;;11.70;99.90;;;11.65;100.00;101233.50;4966334;28;20205;-72
2022/04/30 01:02:33;;;;;;;0.10;0.10;;;11.70;99.90;;;11.67;100.00;101241.47;4980309;28;20216;-72
2022/04/30 01:05:25;;;;;;;0.20;0.20;;;11.60;99.90;;;11.64;100.00;101244.06;4968535;28;20233;-72
2022/04/30 01:07:53;;;;;;;0.20;0.20;;;;;;;11.65;100.00;101240.53;4964782;28;20209;-72
2022/04/30 01:10:21;;;;;;;0.20;0.20;;;11.50;99.90;;;11.63;100.00;101252.88;4966226;28;20701;-72
2022/04/30 01:12:50;;;;;;;0.10;0.10;;;11.50;99.90;;;11.60;100.00;101259.00;4960436;28;20216;-72
2022/04/30 01:15:19;;;;;;;0.10;0.10;;;11.50;99.90;;;11.59;100.00;101272.22;4961101;28;20236;-72
2022/04/30 01:17:47;;;;;;;0.10;0.10;;;11.50;99.90;;;11.55;100.00;101284.53;4967495;28;20216;-72
2022/04/30 01:20:16;;;;;;;0.20;0.20;;;11.50;99.90;;;11.55;100.00;101284.53;4966007;28;20212;-72
2022/04/30 01:23:01;;;;;;;0.10;0.10;;;11.50;99.90;;;11.55;100.00;101290.72;4959245;28;20213;-72
2022/04/30 01:25:31;;;;;;;0.20;0.20;;;11.50;99.90;;;11.50;100.00;101308.28;4960544;28;20233;-72
2022/04/30 01:28:01;;;;;;;0.60;0.60;;;11.40;99.90;;;11.47;100.00;101312.63;4963545;28;20213;-72
2022/04/30 01:30:29;;;;;;;0.10;0.10;;;11.40;99.90;;;11.43;100.00;101313.44;4963522;28;20208;-72
2022/04/30 01:38:31;;;;;;;0.52;0.52;;;11.30;99.90;;;11.35;100.00;101317.69;4967680;28;20577;-71
2022/04/30 01:40:59;;;;;;;0.20;0.20;;;11.30;99.90;;;11.38;100.00;101334.53;4965130;28;20217;-71
2022/04/30 01:43:27;;;;;;;0.10;0.10;;;11.30;99.90;;;11.31;100.00;101331.72;4966587;28;20201;-72
2022/04/30 01:45:55;;;;;;;0.95;0.90;;;11.20;99.90;;;11.26;100.00;101333.38;4948719;28;20236;-72
2022/04/30 01:48:25;;;;;;;0.20;0.20;;;;;;;11.25;100.00;101336.91;4965650;28;20233;-72
2022/04/30 01:50:54;;;;;;;0.20;0.20;;;11.20;99.90;;;11.19;100.00;101341.22;4958725;28;20213;-72
2022/04/30 01:53:23;;;;;;;0.10;0.10;;;;;;;11.20;100.00;101342.09;4968057;28;20220;-72
2022/04/30 01:55:51;;;;;;;0.10;0.10;;;11.10;99.90;;;11.13;100.00;101337.53;4961545;28;20702;-72
2022/04/30 01:58:31;;;;;;;0.10;0.10;;;;;;;11.00;100.00;101352.25;4963206;28;20216;-72
2022/04/30 02:01:00;;;;;;;0.20;0.20;;;;;;;10.97;100.00;101373.38;4964027;28;20206;-72
2022/04/30 02:03:29;;;;;;;0.20;0.20;;;10.90;99.90;;;10.92;100.00;101376.78;4960764;28;20217;-72
2022/04/30 02:05:58;;;;;;;0.20;0.20;;;10.80;99.90;;;10.89;100.00;101380.25;4966912;28;20248;-72
2022/04/30 02:08:27;;;;;;;1.10;1.10;;;10.80;99.90;;;10.92;100.00;101396.19;4980257;28;20205;-73
2022/04/30 02:10:55;;;;;;;0.10;0.10;;;10.80;99.90;;;10.79;100.00;101388.84;4982845;28;20213;-72
2022/04/30 02:13:26;;;;;;;0.10;0.10;;;10.70;99.90;;;10.73;100.00;101386.03;4965968;28;20694;-72
2022/04/30 02:15:56;;;;;;;0.13;0.13;;;10.70;99.90;;;10.79;100.00;101399.41;4963330;28;20242;-72
2022/04/30 02:18:25;;;;;;;0.10;0.10;;;;;;;10.81;100.00;101405.63;4963599;28;20217;-72
2022/04/30 02:20:55;;;;;;;3.30;1.20;;;10.70;99.90;;;10.74;100.00;101415.19;4960229;28;20214;-72
2022/04/30 02:23:23;;;;;;;0.20;0.20;;;10.60;99.90;;;10.73;100.00;101417.78;4962494;28;20205;-72
2022/04/30 02:25:52;;;;;;;0.10;0.10;;;10.70;99.90;;;10.71;100.00;101430.97;4983177;28;20225;-72
2022/04/30 02:28:19;;;;;;;0.10;0.10;;;10.60;99.90;;;10.72;100.00;101434.53;4967963;28;20220;-72
2022/04/30 02:30:48;;;;;;;0.10;0.10;;;10.60;99.90;;;10.66;100.00;101435.28;4988188;28;20212;-73
2022/04/30 02:33:17;;;;;;;0.75;0.75;;;10.60;99.90;;;10.64;100.00;101438.72;4983822;28;20221;-72
2022/04/30 02:35:45;;;;;;;0.20;0.20;;;10.50;99.90;;;10.62;100.00;101451.03;4961096;28;20706;-72
2022/04/30 02:38:14;;;;;;;0.15;0.15;;;10.50;99.90;;;10.54;100.00;101458.78;4968574;28;20213;-73
2022/04/30 02:40:42;;;;;;;0.20;0.20;;;10.50;99.90;;;10.58;100.00;101476.50;4977008;28;20205;-72
2022/04/30 02:43:15;;;;;;;0.10;0.10;;;10.50;99.90;;;10.56;100.00;101480.88;4961825;28;20209;-72
2022/04/30 02:45:44;;;;;;;0.20;0.20;;;;;;;10.55;100.00;101479.06;4959707;28;20252;-72
2022/04/30 02:48:13;;;;;;;0.10;0.10;;;10.50;99.90;;;10.52;100.00;101479.88;4960757;28;20209;-72
2022/04/30 02:50:42;;;;;;;0.20;0.20;;;10.50;99.90;;;10.54;100.00;101483.47;4961513;28;20209;-72
2022/04/30 02:53:09;;;;;;;0.10;0.10;;;10.50;99.90;;;10.51;100.00;101487.78;4968417;28;20217;-72
2022/04/30 02:55:38;;;;;;;0.20;0.20;;;10.40;99.90;;;10.49;100.00;101495.69;4968676;28;20228;-72
2022/04/30 03:00:53;;;;;;;0.10;0.10;;;10.50;99.90;;;10.58;100.00;101503.84;4964434;28;20213;-72
2022/04/30 03:03:24;;;;;;;0.20;0.20;;;10.50;99.90;;;10.65;100.00;101510.19;4964614;28;20275;-72
2022/04/30 03:05:53;;;;;;;0.10;0.10;;;10.50;99.90;;;10.63;100.00;101513.66;4965675;28;20236;-72
2022/04/30 03:08:23;;;;;;;0.10;0.10;;;10.50;99.90;;;10.62;100.00;101507.47;4962866;28;20197;-72
2022/04/30 03:10:55;;;;;;;0.10;0.10;;;10.50;99.90;;;10.56;100.00;101516.16;4963255;28;20216;-73
2022/04/30 03:13:25;;;;;;;0.17;0.17;;;10.50;99.90;;;10.56;100.00;101520.53;4962530;28;20208;-72
2022/04/30 03:15:55;;;;;;;0.10;0.10;;;10.50;99.90;;;10.54;100.00;101517.84;4963532;28;20233;-72
2022/04/30 03:23:57;;;;;;;0.10;0.10;;;10.50;99.90;;;10.60;100.00;101526.81;4965631;28;20658;-72
2022/04/30 03:26:27;;;;;;;0.20;0.20;;;10.50;99.90;;;10.62;100.00;101522.44;4965513;28;20267;-72
2022/04/30 03:28:55;;;;;;;0.20;0.20;;;10.50;99.90;;;10.58;100.00;101517.06;4964500;28;20290;-73
2022/04/30 03:31:23;;;;;;;0.20;0.20;;;10.50;99.90;;;10.57;100.00;101519.69;4965070;28;20217;-73
2022/04/30 03:33:52;;;;;;;0.10;0.10;;;10.50;99.90;;;10.50;100.00;101523.03;4968747;28;20213;-72
2022/04/30 03:36:20;;;;;;;0.10;0.10;;;10.40;99.90;;;10.50;100.00;101525.66;4962084;28;20233;-72
2022/04/30 03:38:48;;;;;;;0.13;0.13;;;10.40;99.90;;;10.48;100.00;101540.59;4964169;28;20209;-73
2022/04/30 03:41:16;;;;;;;0.17;0.17;;;10.40;99.90;;;10.40;100.00;101543.03;4970866;28;20216;-73
2022/04/30 03:43:44;;;;;;;0.10;0.10;;;10.40;99.90;;;10.42;100.00;101551.00;4969468;28;20201;-73
2022/04/30 03:46:12;;;;;;;0.20;0.20;;;;;;;10.46;100.00;101553.78;4961899;28;20240;-73
2022/04/30 03:48:40;;;;;;;0.10;0.10;;;10.40;99.90;;;10.39;100.00;101556.19;4965635;28;20216;-72
2022/04/30 03:51:09;;;;;;;0.10;0.10;;;10.30;99.90;;;10.36;100.00;101571.97;4963548;28;20236;-73
2022/04/30 03:53:37;;;;;;;0.10;0.10;;;10.30;99.90;;;10.36;100.00;101577.25;4960249;28;20205;-73
2022/04/30 03:56:05;;;;;;;0.20;0.20;;;10.30;99.90;;;10.34;100.00;101585.16;4965219;28;20228;-72
2022/04/30 03:58:33;;;;;;;0.13;0.13;;;10.30;99.90;;;10.27;100.00;101581.44;4964912;28;20220;-73
2022/04/30 04:01:01;;;;;;;0.10;0.10;;;10.30;99.90;;;10.34;100.00;101592.19;4963781;28;20227;-73
2022/04/30 04:03:29;;;;;;;0.20;0.20;;;10.30;99.90;;;10.27;100.00;101591.13;4963172;28;20217;-73
2022/04/30 04:05:58;;;;;;;0.20;0.20;;;10.20;99.90;;;10.23;100.00;101598.06;4967507;28;20716;-73
2022/04/30 04:08:26;;;;;;;0.10;0.10;;;10.20;99.90;;;10.21;100.00;101597.13;4962050;28;20209;-73
2022/04/30 04:10:55;;;;;;;0.20;0.20;;;10.20;99.90;;;10.23;100.00;101602.44;4962798;28;20213;-73
2022/04/30 04:18:56;;;;;;;0.17;0.17;;;10.20;99.90;;;10.19;100.00;101621.69;4963270;28;20212;-72
2022/04/30 04:21:24;;;;;;;0.10;0.10;;;10.10;99.90;;;10.20;100.00;101628.78;4961271;28;20217;-73
2022/04/30 04:26:38;;;;;;;0.10;0.10;;;10.10;99.90;;;10.19;100.00;101629.63;4964451;28;20229;-72
2022/04/30 04:29:06;;;;;;;0.20;0.20;;;10.10;99.90;;;10.20;100.00;101639.38;4963034;28;20284;-73
2022/04/30 04:31:34;;;;;;;0.20;0.20;;;10.10;99.90;;;10.23;100.00;101648.28;4959033;28;20204;-73
2022/04/30 04:34:02;;;;;;;0.20;0.20;;;10.10;99.90;;;10.14;100.00;101639.16;4974039;28;20676;-73
2022/04/30 04:36:30;;;;;;;0.35;0.35;;;10.10;99.90;;;10.20;100.00;101639.38;4961660;28;20244;-73
2022/04/30 04:38:58;;;;;;;0.10;0.10;;;;;;;10.20;100.00;101653.50;4964344;28;20217;-73
2022/04/30 04:41:26;;;;;;;0.10;0.10;;;10.10;99.90;;;10.18;100.00;101646.31;4962625;28;20210;-72
2022/04/30 04:43:54;;;;;;;0.10;0.10;;;10.10;99.90;;;10.20;100.00;101649.94;4962785;28;20236;-72
2022/04/30 04:46:22;;;;;;;0.10;0.10;;;10.10;99.90;;;10.17;100.00;101644.53;4958152;28;20225;-73
2022/04/30 04:48:51;;;;;;;0.10;0.10;;;10.10;99.90;;;10.13;100.00;101651.47;4959493;28;20217;-73
2022/04/30 04:51:21;;;;;;;0.10;0.10;;;10.10;99.90;;;10.15;100.00;101659.44;4963756;28;20217;-73
2022/04/30 04:53:48;;;;;;;0.10;0.10;;;10.10;99.90;;;10.17;100.00;101674.50;4962706;28;20209;-73
2022/04/30 04:56:16;;;;;;;0.10;0.10;;;10.10;99.90;;;10.22;100.00;101688.81;4966520;28;20255;-73
2022/04/30 04:58:44;;;;;;;0.30;0.30;;;10.10;99.90;;;10.22;100.00;101687.91;4962036;28;20683;-72
2022/04/30 05:01:12;;;;;;;0.38;0.38;;;10.10;99.90;;;10.15;100.00;101681.50;4962502;28;20209;-73
2022/04/30 05:03:40;;;;;;;0.10;0.10;;;10.10;99.90;;;10.22;100.00;101688.81;4965356;28;20213;-73
2022/04/30 05:06:09;;;;;;;0.10;0.10;;;10.20;99.90;;;10.21;100.00;101691.41;4978345;28;20241;-73
2022/04/30 05:08:37;;;;;;;0.20;0.20;;;10.10;99.90;;;10.20;100.00;101689.59;4958249;28;20205;-72
2022/04/30 05:11:05;;;;;;;0.20;0.20;;;10.10;99.90;;;10.27;100.00;101691.59;4963561;28;20209;-72
2022/04/30 05:13:33;;;;;;;0.20;0.20;;;10.10;99.90;;;10.24;100.00;101687.09;4963357;28;20213;-73
2022/04/30 05:16:01;;;;;;;0.10;0.10;;;10.20;99.90;;;10.20;100.00;101698.44;4959708;28;20229;-74
2022/04/30 05:18:29;;;;;;;0.10;0.10;;;10.20;99.90;;;10.29;100.00;101703.09;4963837;28;20276;-75
2022/04/30 05:20:57;;;;;;;0.10;0.10;;;10.20;99.90;;;10.24;100.00;101697.66;4963517;28;20283;-73
2022/04/30 05:23:25;;;;;;;0.20;0.20;;;10.20;99.90;;;10.24;100.00;101694.13;4968915;28;20216;-74
2022/04/30 05:25:54;;;;;;;0.10;0.10;;;10.20;99.90;;;10.18;100.00;101697.44;4962329;28;20244;-75
2022/04/30 05:28:22;;;;;;;0.10;0.10;;;10.10;99.90;;;10.30;100.00;101704.91;4960849;28;20240;-74
2022/04/30 05:30:50;;;;;;;0.20;0.20;;;10.20;99.90;;;10.24;100.00;101689.75;4959267;28;20208;-75
2022/04/30 05:33:18;;;;;;;0.20;0.20;;;10.20;99.90;;;10.38;100.00;101692.81;4962963;28;20217;-74
2022/04/30 05:35:46;;;;;;;0.17;0.17;;;10.20;99.90;;;10.29;100.00;101696.91;4961704;28;20229;-76
2022/04/30 05:38:14;;;;;;;0.10;0.10;;;10.20;99.90;;;10.39;100.00;101691.06;4963741;28;20214;-74
2022/04/30 05:40:41;;;;;;;0.10;0.10;;;10.20;99.90;;;10.29;100.00;101689.88;4959387;28;20220;-75
2022/04/30 05:43:09;;;;;;;0.30;0.30;;;10.20;99.90;;;10.22;100.00;101674.69;4963163;28;20220;-74
2022/04/30 05:45:37;;;;;;;0.45;0.45;;;10.20;99.90;;;10.26;100.00;101679.22;4969999;28;20240;-73
2022/04/30 05:48:06;;;;;;;0.10;0.10;;;10.20;99.90;;;10.28;100.00;101688.09;4950230;28;20229;-74
2022/04/30 05:50:34;;;;;;;0.10;0.10;;;10.20;99.90;;;10.31;100.00;101695.22;4966802;28;20220;-73
2022/04/30 05:53:02;;;;;;;0.10;0.10;;;10.20;99.90;;;10.29;100.00;101681.06;4967793;28;20675;-73
2022/04/30 05:55:30;;;;;;;0.10;0.10;;;10.20;99.90;;;10.39;100.00;101691.94;4969749;28;20225;-74
2022/04/30 05:57:58;;;;;;;0.20;0.20;;;10.20;99.90;;;10.31;100.00;101687.28;4969200;28;20213;-75
2022/04/30 06:00:26;;;;;;;0.20;0.20;;;10.30;99.90;;;10.44;100.00;101692.13;4966120;28;20212;-74
2022/04/30 06:02:55;;;;;;;0.10;0.10;;;10.30;99.90;;;10.32;100.00;101675.84;4963983;28;20209;-74
2022/04/30 06:05:23;;;;;;;0.10;0.10;;;10.30;99.90;;;10.37;100.00;101692.75;4965246;28;20213;-75
2022/04/30 06:07:52;;;;;;;0.20;0.20;;;10.30;99.90;;;10.35;100.00;101681.22;4966418;28;20229;-75
2022/04/30 06:10:20;;;;;;;0.10;0.10;;;10.30;99.90;;;10.53;100.00;101687.09;4965741;28;20213;-74
2022/04/30 06:12:48;;;;;;;0.20;0.20;;;10.30;99.90;;;10.45;100.00;101672.75;4963159;28;20217;-73
2022/04/30 06:15:16;;;;;;;0.10;0.10;;;10.40;99.90;;;10.49;100.00;101678.19;4980337;28;20209;-74
2022/04/30 06:17:43;;;;;;;0.20;0.20;;;11.50;99.90;;;10.42;100.00;101672.66;4967031;28;20622;-74
2022/04/30 06:20:12;;;;;;;0.10;0.10;;;10.40;99.90;;;10.48;100.00;101688.72;4969013;28;20213;-74
2022/04/30 06:22:40;;;;;;;0.20;0.20;;;10.40;99.90;;;10.46;100.00;101685.13;4963927;28;20559;-74
2022/04/30 06:25:10;;;;;;;0.20;0.20;;;10.40;99.90;;;10.55;100.00;101694.22;4966359;28;20217;-74
2022/04/30 06:27:39;;;;;;;0.20;0.20;;;10.40;99.90;;;10.59;100.00;101695.22;4961607;28;20233;-74
2022/04/30 06:30:08;;;;;;;0.10;0.10;;;10.50;99.90;;;10.67;100.00;101698.06;4965544;28;20217;-73
2022/04/30 06:32:36;;;;;;;0.10;0.10;;;10.50;99.90;;;10.55;100.00;101673.06;4980626;28;20213;-74
2022/04/30 06:35:05;;;;;;;0.10;0.10;;;10.50;99.90;;;10.63;100.00;101675.94;4962886;28;20674;-74
2022/04/30 06:37:33;;;;;;;0.20;0.20;;;10.50;99.90;;;10.61;100.00;101679.38;4967185;28;20217;-73
2022/04/30 06:40:01;;;;;;;0.10;0.10;;;;;;;10.60;100.00;101688.16;4963566;28;20305;-74
2022/04/30 06:42:41;;;;;;;0.40;0.40;;;10.50;99.90;;;10.43;100.00;101669.16;4962885;28;20205;-74
2022/04/30 06:45:10;;;;;;;0.20;0.20;;;10.40;99.90;;;10.55;100.00;101674.81;4964183;28;20209;-74
2022/04/30 06:47:40;;;;;;;0.10;0.10;;;10.40;99.90;;;10.56;100.00;101681.91;4965376;28;20236;-74
2022/04/30 06:50:09;;;;;;;0.13;0.13;;;10.50;99.90;;;10.52;100.00;101682.66;4962537;28;20286;-73
2022/04/30 06:58:11;;;;;;;0.10;0.10;;;10.40;99.90;;;10.48;100.00;101688.72;4959978;28;20217;-74
2022/04/30 07:03:27;;;;;;;0.10;0.10;;;10.40;99.90;;;10.60;100.00;101715.53;4965805;28;20218;-74
2022/04/30 07:06:03;;;;;;;0.10;0.10;;;10.50;99.90;;;10.65;100.00;101716.56;4966497;28;20252;-74
2022/04/30 07:08:34;;;;;;;0.10;0.10;;;10.50;99.90;;;10.72;100.00;101725.56;4978160;28;20237;-75
2022/04/30 07:11:03;;;;;;;0.10;0.10;;;10.60;99.90;;;10.67;100.00;101719.25;4964496;28;20217;-74
2022/04/30 07:13:31;;;;;;;0.10;0.10;;;10.60;99.90;;;10.71;100.00;101726.41;4964469;28;20220;-74
2022/04/30 07:15:59;;;;;;;0.10;0.10;;;10.60;99.90;;;10.72;100.00;101707.94;4963968;28;20226;-74
2022/04/30 07:18:27;;;;;;;0.10;0.10;;;10.60;99.90;;;10.76;100.00;101696.59;4964804;28;20702;-74
2022/04/30 07:20:55;;;;;;;0.10;0.10;;;10.70;99.90;;;10.75;100.00;101670.97;4965024;28;20658;-74
2022/04/30 07:23:23;;;;;;;0.10;0.10;;;10.70;99.90;;;10.73;100.00;101669.16;4961533;28;20228;-74
2022/04/30 07:25:52;;;;;;;0.10;0.10;;;10.70;99.90;;;10.72;100.00;101656.78;4965610;28;20228;-74
2022/04/30 07:28:22;;;;;;;0.10;0.10;;;10.70;99.90;;;10.74;100.00;101649.78;4961878;28;20677;-74
2022/04/30 07:30:51;;;;;;;0.55;0.55;;;;;;;10.69;100.00;101633.78;4963506;28;20201;-73
2022/04/30 07:33:19;;;;;;;0.20;0.20;;;10.60;99.90;;;10.65;100.00;101629.25;4962839;28;20205;-73
2022/04/30 07:35:48;;;;;;;0.20;0.20;;;10.60;99.90;;;10.69;100.00;101623.19;4965147;28;20229;-73
2022/04/30 07:38:16;;;;;;;0.35;0.35;;;10.60;99.90;;;10.72;100.00;101631.22;4961424;28;20216;-73
2022/04/30 07:40:44;;;;;;;0.10;0.10;;;10.60;99.90;;;10.63;100.00;101617.72;4964765;28;20580;-73
2022/04/30 07:43:12;;;;;;;0.10;0.10;;;10.60;99.90;;;10.66;100.00;101623.09;4961031;28;20209;-77
2022/04/30 07:45:41;;;;;;;0.10;0.10;;;10.60;99.90;;;10.63;100.00;101601.84;4960028;28;20237;-74
2022/04/30 07:48:09;;;;;;;0.10;0.10;;;10.50;99.90;;;10.63;100.00;101603.59;4965147;28;20221;-74
2022/04/30 07:50:39;;;;;;;0.10;0.10;;;10.60;99.90;;;10.60;100.00;101595.59;4961335;28;20218;-74
2022/04/30 07:53:08;;;;;;;0.20;0.20;;;10.60;99.90;;;10.67;100.00;101595.78;4963951;28;20209;-74
2022/04/30 07:55:36;;;;;;;0.10;0.10;;;10.60;99.90;;;10.72;100.00;101606.50;4964825;28;20230;-74
2022/04/30 07:58:04;;;;;;;0.10;0.10;;;10.60;99.90;;;10.72;100.00;101604.75;4957899;28;20232;-74
2022/04/30 08:00:32;;;;;;;0.10;0.10;;;10.60;99.90;;;10.91;100.00;101635.25;4967477;28;20209;-74
2022/04/30 08:03:00;;;;;;;0.10;0.10;;;10.70;99.90;;;10.87;100.00;101623.69;4965709;28;20236;-74
2022/04/30 08:05:28;;;;;;;0.10;0.10;;;10.80;99.90;;;10.93;100.00;101612.34;4964596;28;20292;-74
2022/04/30 08:07:57;;;;;;;0.10;0.10;;;10.80;99.90;;;10.89;100.00;101592.84;4959724;28;20221;-74
2022/04/30 08:10:25;;;;;;;0.10;0.10;;;10.80;99.90;;;10.87;100.00;101581.34;4960604;28;20217;-75
2022/04/30 08:12:56;;;;;;;0.10;0.10;;;10.80;99.90;;;10.90;100.00;101577.88;4966769;28;20228;-75
2022/04/30 08:15:26;;;;;;;0.10;0.10;;;10.80;99.90;;;10.89;100.00;101571.69;4966671;28;20213;-74
2022/04/30 08:17:54;;;;;;;0.10;0.10;;;10.80;99.90;;;10.96;100.00;101580.69;4968688;28;20217;-74
2022/04/30 08:20:23;;;;;;;0.25;0.25;;;10.80;99.90;;;11.03;100.00;101592.31;4968601;28;20209;-74
2022/04/30 08:22:51;;;;;;;0.20;0.20;;;10.90;99.90;;;10.96;100.00;101579.78;4969873;28;20208;-75
2022/04/30 08:25:19;;;;;;;0.30;0.30;;;10.90;99.90;;;11.04;100.00;101591.47;4965964;28;20213;-75
2022/04/30 08:27:47;;;;;;;0.10;0.10;;;10.90;99.90;;;11.01;100.00;101586.09;4970268;28;20217;-74
2022/04/30 08:30:15;;;;;;;0.30;0.30;;;11.00;99.90;;;10.94;100.00;101570.91;4971579;28;20220;-74
2022/04/30 08:32:43;;;;;;;0.10;0.10;;;10.90;99.90;;;10.95;100.00;101575.34;4970526;28;20201;-74
2022/04/30 08:35:11;;;;;;;0.10;0.10;;;10.90;99.90;;;10.91;100.00;101566.44;4966586;28;20224;-75
2022/04/30 08:37:59;;;;;;;0.20;0.20;;;10.90;99.90;;;10.87;100.00;101559.28;4962583;28;20216;-74
2022/04/30 08:40:27;;;;;;;0.25;0.25;;;10.80;99.90;;;10.88;100.00;101551.38;4964991;28;20201;-74
2022/04/30 08:42:55;;;;;;;0.38;0.38;;;10.80;99.90;;;10.89;100.00;101558.44;4966773;28;20213;-75
2022/04/30 08:45:24;;;;;;;0.20;0.20;;;10.80;99.90;;;10.96;100.00;101558.59;4980725;28;20566;-74
2022/04/30 08:47:53;;;;;;;0.20;0.20;;;10.80;99.90;;;10.94;100.00;101558.56;4971192;28;20209;-74
2022/04/30 08:50:21;;;;;;;0.10;0.10;;;10.80;99.90;;;10.96;100.00;101570.09;4986787;28;20577;-75
2022/04/30 08:52:51;;;;;;;0.10;0.10;;;10.90;99.90;;;11.00;100.00;101565.78;4961011;28;20216;-75
2022/04/30 08:55:19;;;;;;;0.10;0.10;;;10.90;99.90;;;10.95;100.00;101565.66;4962016;28;20263;-75
2022/04/30 08:57:47;;;;;;;0.20;0.20;;;10.90;99.90;;;10.76;100.00;101548.41;4963412;28;20209;-74
2022/04/30 09:00:16;;;;;;;0.10;0.10;;;10.90;99.90;;;10.82;100.00;101552.97;4961238;28;20213;-74
2022/04/30 09:02:57;;;;;;;0.10;0.10;;;10.80;99.90;;;10.87;100.00;101573.41;4964466;28;20840;-75
2022/04/30 09:05:37;;;;;;;0.20;0.20;;;10.80;99.90;;;10.91;100.00;101577.03;4962162;28;20213;-74
2022/04/30 09:08:06;;;;;;;0.30;0.30;;;10.80;99.90;;;10.89;100.00;101579.63;4965131;28;20217;-74
2022/04/30 09:10:41;;;;;;;0.10;0.10;;;10.80;99.90;;;10.89;100.00;101581.38;4961348;28;20209;-75
2022/04/30 09:13:17;;;;;;;0.10;0.10;;;10.80;99.90;;;10.89;100.00;101605.19;4961948;28;20223;-75
2022/04/30 09:15:53;;;;;;;0.10;0.10;;;10.80;99.90;;;10.97;100.00;101619.53;4977061;28;20229;-75
2022/04/30 09:18:22;;;;;;;0.30;0.30;;;10.90;99.90;;;10.84;100.00;101602.44;4961080;28;20225;-75
2022/04/30 09:20:54;;;;;;;0.10;0.10;;;10.90;99.90;;;11.00;100.00;101629.31;4962447;28;20213;-75
2022/04/30 09:23:31;;;;;;;0.10;0.10;;;11.00;99.90;;;10.83;100.00;101608.56;4979256;28;20209;-72
2022/04/30 09:26:03;;;;;;;0.20;0.20;;;10.90;99.90;;;10.82;100.00;101611.19;4966033;28;20719;-73
2022/04/30 09:28:37;;;;;;;0.13;0.13;;;10.90;99.90;;;10.75;100.00;101598.63;4961639;28;20224;-73
2022/04/30 09:31:14;;;;;;;0.20;0.20;;;10.80;99.90;;;10.85;100.00;101592.75;4961387;28;20236;-73
2022/04/30 09:33:51;;;;;;;0.10;0.10;;;10.80;99.90;;;10.76;100.00;101569.56;4961650;28;20232;-73
2022/04/30 09:39:17;;;;;;;0.10;0.10;;;10.70;99.90;;;10.69;100.00;101556.16;4959798;28;20212;-74
2022/04/30 09:41:46;;;;;;;0.20;0.20;;;10.70;99.90;;;10.78;100.00;101557.28;4958290;28;20212;-73
2022/04/30 09:44:16;;;;;;;0.20;0.20;;;10.70;99.90;;;10.66;100.00;101530.50;4958955;28;20208;-72
2022/04/30 09:46:43;;;;;;;0.30;0.30;;;10.70;99.90;;;10.77;100.00;101547.56;4959643;28;20230;-73
2022/04/30 09:54:45;;;;;;;0.20;0.20;;;10.70;99.90;;;10.77;100.00;101536.97;4960862;28;20213;-72
2022/04/30 09:57:17;;;;;;;0.10;0.10;;;10.70;99.90;;;10.81;100.00;101541.47;4966271;28;20264;-73
2022/04/30 09:59:55;;;;;;;0.10;0.10;;;10.70;99.90;;;10.83;100.00;101538.88;4959745;28;20212;-75
2022/04/30 10:02:27;;;;;;;0.20;0.20;;;10.70;99.90;;;10.74;100.00;101518.38;4960566;28;20205;-73
2022/04/30 10:04:57;;;;;;;0.10;0.10;;;10.70;99.90;;;10.82;100.00;101530.03;4960327;28;20229;-72
2022/04/30 10:07:25;;;;;;;0.15;0.15;;;10.70;99.90;;;10.86;100.00;101533.66;4959881;28;20237;-73
2022/04/30 10:09:59;;;;;;;0.20;0.20;;;10.80;99.90;;;10.82;100.00;101523.84;4962836;28;20244;-72
2022/04/30 10:12:41;;;;;;;0.28;0.28;;;10.80;99.90;;;10.88;100.00;101527.56;4960602;28;20221;-75
2022/04/30 10:15:16;;;;;;;0.10;0.10;;;10.80;99.90;;;10.87;100.00;101524.88;4978248;28;20225;-73
2022/04/30 10:17:48;;;;;;;0.20;0.20;;;10.80;99.90;;;10.76;100.00;101521.06;4965417;28;20208;-73
2022/04/30 10:20:35;;;;;;;0.10;0.10;;;10.80;99.90;;;10.73;100.00;101516.56;4967485;28;20201;-72
2022/04/30 10:23:06;;;;;;;0.20;0.20;;;10.70;99.90;;;10.74;100.00;101517.47;4962973;28;20210;-73
2022/04/30 10:25:40;;;;;;;0.10;0.10;;;10.70;99.90;;;10.76;100.00;101531.63;4979320;28;20232;-73
2022/04/30 10:28:21;;;;;;;0.20;0.20;;;10.70;99.90;;;10.83;100.00;101539.78;4961226;28;20212;-73
2022/04/30 10:31:11;;;;;;;0.20;0.20;;;10.80;99.90;;;10.89;100.00;101545.22;4963789;28;20237;-73
2022/04/30 10:33:51;;;;;;;0.10;0.10;;;10.80;99.90;;;10.86;100.00;101523.06;4964287;28;20209;-72
2022/04/30 10:36:21;;;;;;;0.20;0.20;;;10.80;99.90;;;10.87;100.00;101507.25;4959533;28;20224;-75
2022/04/30 10:38:59;;;;;;;0.10;0.10;;;10.80;99.90;;;10.94;100.00;101513.56;4957955;28;20205;-73
2022/04/30 10:41:27;;;;;;;0.10;0.10;;;10.90;99.90;;;10.99;100.00;101518.97;4978204;28;20212;-73
2022/04/30 10:44:03;;;;;;;0.10;0.10;;;10.90;99.90;;;11.01;100.00;101515.50;4959375;28;20218;-73
2022/04/30 10:46:38;;;;;;;0.10;0.10;;;11.00;99.90;;;10.87;100.00;101491.34;4975556;28;20608;-74
2022/04/30 10:49:06;;;;;;;0.10;0.10;;;10.90;99.90;;;10.91;100.00;101492.31;4957981;28;20208;-74
2022/04/30 10:51:43;;;;;;;0.10;0.10;;;11.00;99.90;;;11.12;100.00;101505.19;4958617;28;20220;-74
2022/04/30 10:54:18;;;;;;;0.10;0.10;;;11.00;99.90;;;11.05;100.00;101495.31;4956243;28;20212;-73
2022/04/30 10:57:04;;;;;;;0.10;0.10;;;11.00;99.90;;;11.08;100.00;101490.09;4958397;28;20229;-76
2022/04/30 10:59:32;;;;;;;0.20;0.20;;;11.00;99.90;;;10.96;100.00;101469.50;4959375;28;20226;-74